createdAt,value
2023-01-19T00:02:03.795Z,-18.31
2023-01-19T00:05:07.529Z,-18.17
2023-01-19T00:08:15.665Z,-18.33
2023-01-19T00:11:19.245Z,-18.35
2023-01-19T00:14:22.587Z,-18.35
2023-01-19T00:17:25.520Z,-18.31
2023-01-19T00:20:29.071Z,-18.47
2023-01-19T00:23:32.225Z,-18.33
2023-01-19T00:26:35.422Z,-18.31
2023-01-19T00:29:38.285Z,-18.39
2023-01-19T00:32:41.258Z,-18.36
2023-01-19T00:35:44.666Z,-18.56
2023-01-19T00:38:47.947Z,-18.81
2023-01-19T00:42:09.137Z,-18.82
2023-01-19T00:45:20.334Z,-18.79
2023-01-19T00:48:24.334Z,-18.87
2023-01-19T00:51:28.257Z,-18.89
2023-01-19T00:54:31.911Z,-18.90
2023-01-19T00:57:35.994Z,-18.88
2023-01-19T01:00:39.589Z,-18.90
2023-01-19T01:03:43.678Z,-18.84
2023-01-19T01:06:47.480Z,-18.65
2023-01-19T01:09:52.524Z,-18.62
2023-01-19T01:12:58.027Z,-18.68
2023-01-19T01:16:19.939Z,-18.63
2023-01-19T01:19:24.294Z,-18.24
2023-01-19T01:22:27.990Z,-17.84
2023-01-19T01:25:32.458Z,-17.48
2023-01-19T01:28:35.785Z,-17.29
2023-01-19T01:31:39.820Z,-17.26
2023-01-19T01:34:43.688Z,-17.12
2023-01-19T01:37:47.750Z,-16.71
2023-01-19T01:40:51.401Z,-16.29
2023-01-19T01:44:03.056Z,-16.46
2023-01-19T01:47:06.713Z,-16.57
2023-01-19T01:50:18.784Z,-16.53
2023-01-19T01:53:21.760Z,-16.49
2023-01-19T01:56:30.679Z,-16.66
2023-01-19T01:59:41.033Z,-16.48
2023-01-19T02:02:51.992Z,-16.47
2023-01-19T02:05:59.773Z,-16.49
2023-01-19T02:09:28.052Z,-16.21
2023-01-19T02:12:49.195Z,-16.01
2023-01-19T02:16:18.745Z,-15.80
2023-01-19T02:19:32.612Z,-16.01
2023-01-19T02:22:47.541Z,-15.64
2023-01-19T02:25:51.378Z,-15.69
2023-01-19T02:29:04.689Z,-15.54
2023-01-19T02:32:08.459Z,-15.50
2023-01-19T02:35:13.617Z,-15.51
2023-01-19T02:38:19.858Z,-15.23
2023-01-19T02:41:28.977Z,-15.24
2023-01-19T02:44:34.331Z,-15.58
2023-01-19T02:47:41.093Z,-16.00
2023-01-19T02:50:48.046Z,-15.49
2023-01-19T02:54:04.092Z,-15.28
2023-01-19T02:57:13.541Z,-15.28
2023-01-19T03:00:31.032Z,-15.26
2023-01-19T03:04:01.117Z,-15.17
2023-01-19T03:07:22.133Z,-14.77
2023-01-19T03:10:37.233Z,-15.10
2023-01-19T03:14:01.750Z,-14.61
2023-01-19T03:17:07.937Z,-14.30
2023-01-19T03:20:15.075Z,-13.94
2023-01-19T03:26:59.569Z,-13.60
2023-01-19T03:30:09.002Z,-13.51
2023-01-19T03:33:33.652Z,-14.01
2023-01-19T03:36:43.370Z,-14.24
2023-01-19T03:39:46.398Z,-14.48
2023-01-19T03:42:51.424Z,-14.61
2023-01-19T03:45:57.375Z,-14.41
2023-01-19T03:49:01.777Z,-14.25
2023-01-19T03:52:05.928Z,-14.06
2023-01-19T03:55:10.874Z,-14.13
2023-01-19T03:58:14.453Z,-14.31
2023-01-19T04:01:21.584Z,-14.42
2023-01-19T04:04:26.127Z,-14.57
2023-01-19T04:07:30.073Z,-14.40
2023-01-19T04:10:34.399Z,-14.48
2023-01-19T04:13:39.690Z,-14.52
2023-01-19T04:16:42.593Z,-14.53
2023-01-19T04:19:46.334Z,-14.77
2023-01-19T04:22:50.200Z,-14.86
2023-01-19T04:25:59.808Z,-14.79
2023-01-19T04:29:02.854Z,-14.82
2023-01-19T04:32:07.155Z,-15.13
2023-01-19T04:35:10.952Z,-15.41
2023-01-19T04:38:14.653Z,-15.37
2023-01-19T04:41:18.872Z,-15.51
2023-01-19T04:44:22.922Z,-15.55
2023-01-19T04:47:26.984Z,-15.59
2023-01-19T04:50:31.143Z,-15.53
2023-01-19T04:53:34.947Z,-15.68
2023-01-19T04:56:38.412Z,-15.50
2023-01-19T04:59:43.524Z,-15.55
2023-01-19T05:03:11.683Z,-15.56
2023-01-19T05:06:14.631Z,-15.33
2023-01-19T05:09:17.624Z,-15.31
2023-01-19T05:12:21.091Z,-15.61
2023-01-19T05:15:24.679Z,-15.59
2023-01-19T05:18:30.494Z,-15.65
2023-01-19T05:21:33.546Z,-15.70
2023-01-19T05:24:37.149Z,-15.92
2023-01-19T05:27:40.155Z,-15.82
2023-01-19T05:30:43.673Z,-15.66
2023-01-19T05:33:48.774Z,-15.80
2023-01-19T05:36:52.585Z,-15.87
2023-01-19T05:39:55.500Z,-15.85
2023-01-19T05:43:02.324Z,-15.91
2023-01-19T05:46:06.013Z,-15.79
2023-01-19T05:49:09.716Z,-15.72
2023-01-19T05:52:13.379Z,-15.93
2023-01-19T05:55:17.164Z,-15.98
2023-01-19T05:58:20.523Z,-15.87
2023-01-19T06:01:24.590Z,-15.82
2023-01-19T06:04:27.868Z,-15.77
2023-01-19T06:07:32.339Z,-15.75
2023-01-19T06:10:35.249Z,-15.72
2023-01-19T06:13:41.348Z,-15.79
2023-01-19T06:16:45.624Z,-15.87
2023-01-19T06:19:49.203Z,-15.92
2023-01-19T06:22:52.864Z,-15.96
2023-01-19T06:25:55.890Z,-15.90
2023-01-19T06:29:00.037Z,-16.04
2023-01-19T06:32:03.032Z,-16.02
2023-01-19T06:35:08.376Z,-15.99
2023-01-19T06:38:11.381Z,-16.19
2023-01-19T06:41:15.087Z,-16.29
2023-01-19T06:44:18.395Z,-16.28
2023-01-19T06:47:21.205Z,-16.37
2023-01-19T06:50:24.191Z,-16.27
2023-01-19T06:53:28.529Z,-16.19
2023-01-19T06:56:31.528Z,-16.19
2023-01-19T06:59:34.407Z,-16.11
2023-01-19T07:02:37.646Z,-16.20
2023-01-19T07:05:40.634Z,-16.24
2023-01-19T07:08:44.119Z,-16.38
2023-01-19T07:11:47.879Z,-16.29
2023-01-19T07:14:52.306Z,-16.29
2023-01-19T07:17:59.724Z,-16.33
2023-01-19T07:21:05.884Z,-16.57
2023-01-19T07:24:09.937Z,-16.60
2023-01-19T07:27:13.620Z,-16.57
2023-01-19T07:30:42.991Z,-16.71
2023-01-19T07:33:47.722Z,-16.65
2023-01-19T07:36:51.752Z,-16.62
2023-01-19T07:39:54.657Z,-16.75
2023-01-19T07:42:59.013Z,-16.99
2023-01-19T07:46:04.681Z,-17.00
2023-01-19T07:49:08.957Z,-17.06
2023-01-19T07:52:11.813Z,-16.89
2023-01-19T07:55:14.855Z,-16.93
2023-01-19T07:58:17.685Z,-16.94
2023-01-19T08:01:20.672Z,-16.95
2023-01-19T08:04:24.986Z,-17.00
2023-01-19T08:07:28.546Z,-17.12
2023-01-19T08:10:35.400Z,-17.26
2023-01-19T08:13:39.404Z,-17.43
2023-01-19T08:16:42.393Z,-17.53
2023-01-19T08:19:46.089Z,-17.63
2023-01-19T08:22:48.960Z,-17.79
2023-01-19T08:25:51.984Z,-17.73
2023-01-19T08:28:55.395Z,-17.92
2023-01-19T08:32:00.705Z,-17.98
2023-01-19T08:35:04.925Z,-18.06
2023-01-19T08:38:09.757Z,-18.20
2023-01-19T08:41:13.231Z,-18.30
2023-01-19T08:44:16.791Z,-18.23
2023-01-19T08:47:20.498Z,-18.33
2023-01-19T08:50:24.277Z,-18.45
2023-01-19T08:53:27.504Z,-18.65
2023-01-19T08:56:30.447Z,-18.80
2023-01-19T08:59:33.727Z,-18.91
2023-01-19T09:02:38.298Z,-18.93
2023-01-19T09:05:42.523Z,-19.06
2023-01-19T09:08:45.995Z,-19.00
2023-01-19T09:11:49.963Z,-19.22
2023-01-19T09:14:52.978Z,-19.25
2023-01-19T09:17:56.300Z,-19.16
2023-01-19T09:21:00.312Z,-19.18
2023-01-19T09:24:04.599Z,-19.20
2023-01-19T09:27:08.395Z,-19.25
2023-01-19T09:30:13.196Z,-19.49
2023-01-19T09:33:18.442Z,-19.67
2023-01-19T09:36:22.516Z,-19.67
2023-01-19T09:39:25.438Z,-19.66
2023-01-19T09:43:05.565Z,-19.69
2023-01-19T09:46:20.011Z,-19.73
2023-01-19T09:49:37.470Z,-19.88
2023-01-19T09:52:45.216Z,-19.80
2023-01-19T09:55:48.159Z,-19.95
2023-01-19T09:58:52.377Z,-20.03
2023-01-19T10:01:55.726Z,-19.92
2023-01-19T10:05:00.853Z,-19.77
2023-01-19T10:08:26.489Z,-19.95
2023-01-19T10:11:52.738Z,-20.06
2023-01-19T10:15:23.736Z,-20.30
2023-01-19T10:18:46.747Z,-20.43
2023-01-19T10:21:54.460Z,-20.35
2023-01-19T10:25:08.926Z,-20.28
2023-01-19T10:28:14.039Z,-20.33
2023-01-19T10:31:21.419Z,-20.30
2023-01-19T10:34:25.225Z,-20.26
2023-01-19T10:37:30.595Z,-20.41
2023-01-19T10:41:01.583Z,-20.55
2023-01-19T10:44:06.702Z,-20.63
2023-01-19T10:47:21.148Z,-20.61
2023-01-19T10:50:33.617Z,-20.55
2023-01-19T10:53:37.960Z,-20.53
2023-01-19T10:56:42.195Z,-20.64
2023-01-19T10:59:45.002Z,-20.73
2023-01-19T11:02:52.757Z,-20.90
2023-01-19T11:06:15.928Z,-20.83
2023-01-19T11:09:21.966Z,-21.00
2023-01-19T11:12:25.234Z,-21.13
2023-01-19T11:15:57.982Z,-21.19
2023-01-19T11:19:03.281Z,-21.21
2023-01-19T11:22:23.563Z,-21.20
2023-01-19T11:25:31.767Z,-21.21
2023-01-19T11:28:46.902Z,-21.30
2023-01-19T11:31:50.842Z,-21.29
2023-01-19T11:34:54.546Z,-21.28
2023-01-19T11:38:23.639Z,-21.26
2023-01-19T11:41:37.808Z,-21.15
2023-01-19T11:44:52.024Z,-21.13
2023-01-19T11:47:57.719Z,-21.13
2023-01-19T11:51:05.304Z,-21.08
2023-01-19T11:54:20.076Z,-21.13
2023-01-19T11:57:23.117Z,-21.10
2023-01-19T12:00:45.247Z,-21.03
2023-01-19T12:04:16.185Z,-20.97
2023-01-19T12:07:24.442Z,-21.03
2023-01-19T12:10:32.201Z,-21.19
2023-01-19T12:13:36.337Z,-21.16
2023-01-19T12:16:42.256Z,-21.12
2023-01-19T12:19:55.124Z,-21.34
2023-01-19T12:23:03.881Z,-21.26
2023-01-19T12:26:31.486Z,-21.24
2023-01-19T12:29:37.571Z,-21.07
2023-01-19T12:32:40.447Z,-21.08
2023-01-19T12:36:01.760Z,-21.14
2023-01-19T12:39:05.342Z,-21.22
2023-01-19T12:42:19.373Z,-21.37
2023-01-19T12:45:29.469Z,-21.49
2023-01-19T12:48:33.794Z,-21.51
2023-01-19T12:51:37.721Z,-21.40
2023-01-19T12:55:03.752Z,-21.39
2023-01-19T12:58:15.691Z,-21.32
2023-01-19T13:01:22.222Z,-21.25
2023-01-19T13:04:34.133Z,-21.19
2023-01-19T13:08:03.594Z,-21.33
2023-01-19T13:11:06.966Z,-21.08
2023-01-19T13:14:36.457Z,-21.08
2023-01-19T13:17:51.941Z,-21.09
2023-01-19T13:21:01.062Z,-21.07
2023-01-19T13:24:07.324Z,-21.08
2023-01-19T13:27:14.385Z,-21.04
2023-01-19T13:30:20.195Z,-20.83
2023-01-19T13:33:27.679Z,-20.87
2023-01-19T13:36:38.059Z,-21.00
2023-01-19T13:39:45.234Z,-21.16
2023-01-19T13:42:50.450Z,-21.17
2023-01-19T13:45:55.919Z,-21.02
2023-01-19T13:49:14.295Z,-21.00
2023-01-19T13:52:22.757Z,-21.10
2023-01-19T13:55:31.624Z,-21.17
2023-01-19T13:58:35.775Z,-21.12
2023-01-19T14:01:43.755Z,-21.07
2023-01-19T14:04:47.351Z,-20.97
2023-01-19T14:08:03.434Z,-21.25
2023-01-19T14:11:08.109Z,-21.41
2023-01-19T14:14:28.636Z,-21.26
2023-01-19T14:17:33.518Z,-21.22
2023-01-19T14:20:39.273Z,-21.21
2023-01-19T14:23:50.751Z,-21.32
2023-01-19T14:26:56.738Z,-21.31
2023-01-19T14:30:21.217Z,-21.36
2023-01-19T14:33:40.940Z,-21.34
2023-01-19T14:36:43.925Z,-21.20
2023-01-19T14:40:01.590Z,-21.12
2023-01-19T14:43:07.083Z,-21.19
2023-01-19T14:46:19.515Z,-21.39
2023-01-19T14:49:38.589Z,-21.33
2023-01-19T14:52:43.835Z,-21.11
2023-01-19T14:55:51.901Z,-20.95
2023-01-19T14:58:57.045Z,-20.87
2023-01-19T15:02:00.684Z,-20.98
2023-01-19T15:05:05.119Z,-20.86
2023-01-19T15:08:12.979Z,-20.97
2023-01-19T15:11:33.589Z,-20.94
2023-01-19T15:14:36.435Z,-21.11
2023-01-19T15:17:40.521Z,-21.25
2023-01-19T15:20:44.421Z,-21.29
2023-01-19T15:23:48.868Z,-21.35
2023-01-19T15:26:52.422Z,-21.44
2023-01-19T15:29:55.811Z,-21.55
2023-01-19T15:32:59.565Z,-21.46
2023-01-19T15:36:02.632Z,-21.62
2023-01-19T15:39:05.644Z,-21.67
2023-01-19T15:42:17.517Z,-21.69
2023-01-19T15:45:34.293Z,-21.64
2023-01-19T15:48:37.114Z,-21.61
2023-01-19T15:51:39.919Z,-21.72
2023-01-19T15:54:43.073Z,-21.93
2023-01-19T15:57:46.039Z,-22.04
2023-01-19T16:00:57.460Z,-22.23
2023-01-19T16:04:02.737Z,-22.45
2023-01-19T16:07:05.926Z,-22.64
2023-01-19T16:10:10.135Z,-22.80
2023-01-19T16:13:13.421Z,-22.90
2023-01-19T16:16:19.936Z,-23.06
2023-01-19T16:19:23.835Z,-23.13
2023-01-19T16:22:26.647Z,-23.05
2023-01-19T16:25:31.592Z,-22.97
2023-01-19T16:28:38.763Z,-23.03
2023-01-19T16:31:43.951Z,-23.27
2023-01-19T16:35:03.552Z,-23.51
2023-01-19T16:38:06.451Z,-23.64
2023-01-19T16:41:11.076Z,-23.80
2023-01-19T16:44:16.112Z,-23.91
2023-01-19T16:47:19.145Z,-23.90
2023-01-19T16:50:22.141Z,-23.74
2023-01-19T16:53:25.989Z,-23.76
2023-01-19T16:56:29.979Z,-23.88
2023-01-19T16:59:32.867Z,-23.95
2023-01-19T17:02:35.806Z,-24.00
2023-01-19T17:05:39.768Z,-24.10
2023-01-19T17:08:43.565Z,-24.23
2023-01-19T17:11:47.324Z,-24.35
2023-01-19T17:14:50.257Z,-24.40
2023-01-19T17:17:53.283Z,-24.55
2023-01-19T17:21:01.771Z,-24.58
2023-01-19T17:24:05.822Z,-24.77
2023-01-19T17:27:09.078Z,-24.75
2023-01-19T17:30:13.023Z,-24.77
2023-01-19T17:33:16.252Z,-24.81
2023-01-19T17:36:22.906Z,-24.92
2023-01-19T17:39:25.769Z,-25.03
2023-01-19T17:42:28.694Z,-25.00
2023-01-19T17:45:31.977Z,-25.01
2023-01-19T17:48:35.228Z,-25.05
2023-01-19T17:51:38.824Z,-24.88
2023-01-19T17:54:42.164Z,-24.79
2023-01-19T17:57:45.084Z,-24.59
2023-01-19T18:00:48.001Z,-24.42
2023-01-19T18:03:51.656Z,-24.50
2023-01-19T18:06:54.558Z,-24.58
2023-01-19T18:10:00.163Z,-24.74
2023-01-19T18:13:04.825Z,-24.63
2023-01-19T18:16:14.464Z,-24.50
2023-01-19T18:19:17.995Z,-24.60
2023-01-19T18:22:21.162Z,-24.57
2023-01-19T18:25:24.161Z,-24.65
2023-01-19T18:28:28.770Z,-24.43
2023-01-19T18:31:31.808Z,-24.55
2023-01-19T18:34:34.829Z,-24.62
2023-01-19T18:37:38.453Z,-24.48
2023-01-19T18:40:42.271Z,-24.46
2023-01-19T18:43:47.192Z,-24.25
2023-01-19T18:46:50.882Z,-23.98
2023-01-19T18:49:53.756Z,-23.93
2023-01-19T18:52:57.524Z,-24.01
2023-01-19T18:56:03.005Z,-24.28
2023-01-19T18:59:06.636Z,-24.46
2023-01-19T19:02:12.235Z,-24.36
2023-01-19T19:05:15.992Z,-24.38
2023-01-19T19:08:19.600Z,-24.46
2023-01-19T19:11:24.821Z,-24.52
2023-01-19T19:14:28.754Z,-24.41
2023-01-19T19:17:32.664Z,-24.79
2023-01-19T19:20:39.616Z,-25.03
2023-01-19T19:23:43.309Z,-25.17
2023-01-19T19:26:48.910Z,-25.26
2023-01-19T19:29:52.704Z,-25.47
2023-01-19T19:32:57.303Z,-25.58
2023-01-19T19:36:00.663Z,-25.63
2023-01-19T19:39:04.869Z,-25.75
2023-01-19T19:42:08.416Z,-25.89
2023-01-19T19:45:13.113Z,-26.02
2023-01-19T19:48:16.676Z,-26.29
2023-01-19T19:51:23.125Z,-26.28
2023-01-19T19:54:26.144Z,-26.35
2023-01-19T19:57:30.186Z,-26.42
2023-01-19T20:00:33.894Z,-26.22
2023-01-19T20:03:37.261Z,-26.28
2023-01-19T20:06:45.205Z,-26.48
2023-01-19T20:09:49.710Z,-26.51
2023-01-19T20:12:52.606Z,-26.46
2023-01-19T20:15:55.822Z,-26.42
2023-01-19T20:18:59.460Z,-26.56
2023-01-19T20:22:03.419Z,-26.49
2023-01-19T20:25:07.790Z,-26.66
2023-01-19T20:28:11.857Z,-27.06
2023-01-19T20:31:15.795Z,-27.32
2023-01-19T20:34:22.199Z,-27.48
2023-01-19T20:37:25.873Z,-27.69
2023-01-19T20:40:29.853Z,-27.75
2023-01-19T20:43:33.487Z,-27.84
2023-01-19T20:46:37.483Z,-27.90
2023-01-19T20:49:41.150Z,-27.82
2023-01-19T20:52:44.370Z,-27.81
2023-01-19T20:55:47.925Z,-27.89
2023-01-19T20:58:51.936Z,-27.99
2023-01-19T21:01:55.809Z,-28.04
2023-01-19T21:04:59.950Z,-28.05
2023-01-19T21:08:03.873Z,-28.11
2023-01-19T21:11:08.957Z,-28.02
2023-01-19T21:14:11.890Z,-27.96
2023-01-19T21:17:15.837Z,-27.96
2023-01-19T21:20:19.897Z,-27.84
2023-01-19T21:23:24.927Z,-27.78
2023-01-19T21:26:32.122Z,-27.75
2023-01-19T21:29:36.152Z,-27.53
2023-01-19T21:32:39.752Z,-27.21
2023-01-19T21:36:03.819Z,-27.05
2023-01-19T21:39:08.620Z,-27.21
2023-01-19T21:42:11.609Z,-27.53
2023-01-19T21:45:14.837Z,-27.39
2023-01-19T21:48:18.301Z,-27.56
2023-01-19T21:51:21.151Z,-28.09
2023-01-19T21:54:24.762Z,-28.42
2023-01-19T21:57:28.009Z,-28.71
2023-01-19T22:00:32.232Z,-28.93
2023-01-19T22:03:36.029Z,-28.94
2023-01-19T22:06:40.081Z,-28.76
2023-01-19T22:09:44.083Z,-28.85
2023-01-19T22:12:47.541Z,-28.90
2023-01-19T22:15:59.518Z,-28.94
2023-01-19T22:19:03.130Z,-29.01
2023-01-19T22:22:06.616Z,-29.02
2023-01-19T22:25:11.241Z,-29.14
2023-01-19T22:28:14.436Z,-29.20
2023-01-19T22:31:19.657Z,-29.32
2023-01-19T22:34:23.406Z,-29.39
2023-01-19T22:37:27.446Z,-29.58
2023-01-19T22:40:31.023Z,-29.74
2023-01-19T22:43:35.088Z,-29.74
2023-01-19T22:46:39.185Z,-29.56
2023-01-19T22:49:43.210Z,-29.27
2023-01-19T22:52:46.751Z,-29.17
2023-01-19T22:55:50.579Z,-29.17
2023-01-19T22:58:54.673Z,-29.09
2023-01-19T23:01:58.842Z,-29.41
2023-01-19T23:05:02.143Z,-29.60
2023-01-19T23:08:06.465Z,-29.81
2023-01-19T23:11:17.094Z,-29.86
2023-01-19T23:14:22.675Z,-29.69
2023-01-19T23:17:25.645Z,-29.27
2023-01-19T23:20:29.295Z,-29.34
2023-01-19T23:23:34.381Z,-29.63
2023-01-19T23:26:41.183Z,-29.79
2023-01-19T23:29:44.647Z,-30.05
2023-01-19T23:32:49.238Z,-30.13
2023-01-19T23:35:52.865Z,-30.28
2023-01-19T23:39:01.285Z,-30.38
2023-01-19T23:42:05.645Z,-30.40
2023-01-19T23:45:10.062Z,-30.43
2023-01-19T23:48:13.688Z,-30.51
2023-01-19T23:51:25.932Z,-30.42
2023-01-19T23:54:28.873Z,-30.28
2023-01-19T23:57:32.409Z,-30.18
